Latest Weather Observations for Khancoban

IDN60801

Issued at 5:05 pm EST Thursday 28 August 2014 (issued every 30 minutes, with the page automatically refreshed every 10 minutes)

About weather observations | Map of weather stations | Latest weather observations for NSW | Other Formats
Station Details ID: 072162 Name: KHANCOBAN AWS Lat: -36.23 Lon: 148.14 Height: 339.3 m
Data from the previous 72 hours. | See also: Recent months at Khancoban
Date/Time
EST
Temp
°C
App
Temp
°C
Dew
Point
Rel
Hum
%
Delta-T
°C
Wind Press
QNH
hPa
Press
MSL
hPa
Rain
since 9 am
mm
Dir
 
Spd
km/h
Gust
km/h
Spd
kts
Gust
kts
28/05:00pm 14.8 12.4 4.2 49 5.0 NNW 6 7 3 4 1026.6 1027.2 0.0
28/04:30pm 17.1 14.6 4.8 44 5.9 WNW 7 9 4 5 1026.5 - 0.0
28/04:00pm 17.0 13.8 3.0 39 6.5 NW 9 11 5 6 1026.4 1027.0 0.0
28/03:30pm 17.6 14.3 -1.1 28 8.1 NW 6 9 3 5 1026.5 - 0.0
28/03:00pm 17.5 14.0 -1.2 28 8.0 NW 7 13 4 7 1026.5 1027.1 0.0
28/02:30pm 17.3 13.9 -0.9 29 7.9 NW 7 11 4 6 1026.8 - 0.0
28/02:00pm 16.9 13.9 -1.7 28 7.8 NW 4 9 2 5 1026.8 1027.4 0.0
28/01:30pm 16.4 13.2 -0.3 32 7.2 NW 6 9 3 5 1027.2 - 0.0
28/01:00pm 15.4 11.6 -0.4 34 6.7 NW 9 13 5 7 1027.7 1028.3 0.0
28/12:30pm 14.9 12.3 4.0 48 5.1 NW 7 11 4 6 1028.1 - 0.0
28/12:00pm 14.1 12.6 4.9 54 4.3 NW 2 7 1 4 1028.6 1029.2 0.0
28/11:30am 13.3 11.5 5.2 58 3.8 SSW 4 7 2 4 1029.0 - 0.0
28/11:00am 11.9 10.3 4.6 61 3.4 N 2 6 1 3 1029.5 1030.1 0.0
28/10:30am 10.7 9.3 3.5 61 3.2 CALM 0 6 0 3 1029.9 - 0.0
28/10:00am 9.1 6.5 3.1 66 2.6 NW 6 9 3 5 1030.2 1030.9 0.0
28/09:30am 7.6 5.1 1.7 66 2.5 NW 4 7 2 4 1030.3 - 0.0
28/09:00am 6.4 4.9 2.9 78 1.5 CALM 0 6 0 3 1030.4 1031.1 0.0
28/08:30am 4.9 3.4 3.2 89 0.7 CALM 0 0 0 0 1030.4 - 0.0
28/08:00am 2.7 1.1 2.6 99 0.0 CALM 0 0 0 0 1030.2 1030.9 0.0
28/07:30am 0.6 -1.3 0.5 99 0.0 CALM 0 0 0 0 1030.1 - 0.0
28/07:00am 0.7 -1.2 0.7 100 0.0 CALM 0 0 0 0 1029.9 1030.6 0.0
28/06:30am 0.3 -1.7 0.2 99 0.0 CALM 0 0 0 0 1029.7 - 0.0
28/06:00am 0.7 -1.2 0.6 99 0.0 SSW 0 0 0 0 1029.3 1029.9 0.0
28/05:30am 0.7 -1.2 0.6 99 0.0 CALM 0 0 0 0 1029.2 - 0.0
28/05:00am 1.1 -0.7 1.1 100 0.0 CALM 0 9 0 5 1029.1 1029.7 0.0
28/04:30am 0.7 -1.2 0.6 99 0.0 ENE 0 6 0 3 1029.0 - 0.0
28/04:00am 1.1 -1.9 1.0 99 0.0 NE 6 7 3 4 1029.0 1029.6 0.0
28/03:30am 1.5 -0.3 1.4 99 0.0 CALM 0 0 0 0 1028.8 - 0.0
28/03:00am 2.5 0.5 2.4 99 0.0 SSE 2 7 1 4 1028.6 1029.2 0.0
28/02:30am 1.9 0.2 1.8 99 0.0 CALM 0 0 0 0 1028.6 - 0.0
28/02:00am 1.9 0.2 1.6 98 0.1 SSE 0 0 0 0 1028.4 1029.0 0.0
28/01:30am 2.8 1.2 2.7 99 0.0 CALM 0 0 0 0 1028.6 - 0.0
28/01:00am 2.8 1.2 2.7 99 0.0 SSE 0 6 0 3 1028.6 1029.2 0.0
28/12:30am 3.8 2.4 3.5 98 0.1 CALM 0 0 0 0 1028.5 - 0.0
28/12:00am 3.6 2.0 2.4 92 0.5 SSE 0 0 0 0 1028.6 1029.2 0.0
 
Date/Time
EST
Temp
°C
App
Temp
°C
Dew
Point
Rel
Hum
%
Delta-T
°C
Wind Press
QNH
hPa
Press
MSL
hPa
Rain
since 9 am
mm
Dir
 
Spd
km/h
Gust
km/h
Spd
kts
Gust
kts
27/11:30pm 3.4 0.5 2.4 93 0.4 SSE 7 9 4 5 1028.6 - 0.0
27/11:00pm 5.0 3.2 3.2 88 0.8 ENE 2 7 1 4 1028.7 1029.3 0.0
27/10:30pm 4.7 2.4 2.9 88 0.8 ENE 4 7 2 4 1028.5 - 0.0
27/10:00pm 4.9 2.4 3.7 92 0.5 SSE 6 7 3 4 1028.4 1029.0 0.0
27/09:30pm 6.2 4.8 3.7 84 1.1 CALM 0 0 0 0 1028.2 - 0.0
27/09:00pm 5.9 4.4 3.2 83 1.1 CALM 0 0 0 0 1028.0 1028.6 0.0
27/08:30pm 6.6 5.3 4.3 85 1.0 CALM 0 0 0 0 1027.8 - 0.0
27/08:00pm 6.7 5.0 3.9 82 1.2 S 2 6 1 3 1027.7 1028.3 0.0
27/07:30pm 8.4 7.2 4.8 78 1.6 CALM 0 0 0 0 1027.4 - 0.0
27/07:00pm 9.1 7.8 3.9 70 2.3 CALM 0 0 0 0 1027.1 1027.7 0.0
27/06:30pm 10.0 8.6 3.3 63 3.0 CALM 0 4 0 2 1026.7 - 0.0
27/06:00pm 10.5 8.0 3.5 62 3.1 SSE 6 7 3 4 1026.5 1027.1 0.0
27/05:30pm 14.1 11.5 3.3 48 5.0 SSE 6 9 3 5 1026.1 - 0.0
27/05:00pm 16.0 12.8 3.1 42 5.9 ENE 9 15 5 8 1025.7 1026.3 0.0
27/04:30pm 17.0 13.1 1.0 34 7.2 ESE 11 15 6 8 1025.5 - 0.0
27/04:00pm 17.4 14.2 3.0 38 6.7 NE 9 17 5 9 1025.5 1026.1 0.0
27/03:30pm 17.6 14.3 4.5 42 6.3 N 11 15 6 8 1025.4 - 0.0
27/03:00pm 17.9 15.3 3.0 37 7.0 NW 6 11 3 6 1025.4 1026.0 0.0
27/02:30pm 17.4 14.4 4.0 41 6.4 NW 9 15 5 8 1025.5 - 0.0
27/02:00pm 17.3 14.3 3.9 41 6.3 W 9 13 5 7 1025.6 1026.2 0.0
27/01:30pm 16.9 14.6 5.8 48 5.5 NW 7 13 4 7 1025.9 - 0.0
27/01:00pm 16.4 13.5 2.8 40 6.3 NW 7 11 4 6 1026.2 1026.8 0.0
27/12:30pm 16.0 13.5 5.0 48 5.3 NW 7 13 4 7 1026.7 - 0.0
27/12:00pm 15.3 13.1 5.2 51 4.8 NW 6 11 3 6 1027.0 1027.6 0.0
27/11:30am 14.5 12.3 5.3 54 4.4 WNW 6 9 3 5 1027.3 - 0.0
27/11:00am 13.7 12.9 6.3 61 3.6 CALM 0 6 0 3 1027.7 1028.3 0.0
27/10:30am 12.0 9.8 5.2 63 3.2 NNW 6 9 3 5 1028.0 - 0.0
27/10:00am 11.1 8.7 5.4 68 2.7 NW 7 9 4 5 1028.1 1028.7 0.0
27/09:30am 9.8 8.4 5.6 75 2.0 N 2 7 1 4 1028.1 - 0.0
27/09:00am 7.6 6.7 6.2 91 0.6 CALM 0 0 0 0 1028.2 1028.8 0.0
27/08:30am 6.5 5.7 6.4 99 0.0 CALM 0 0 0 0 1028.2 - 0.0
27/08:00am 4.4 3.2 4.4 100 0.0 CALM 0 0 0 0 1028.2 1028.8 0.0
27/07:30am 2.2 0.2 2.2 100 0.0 S 2 7 1 4 1027.9 - 0.0
27/07:00am 2.2 0.6 2.2 100 0.0 CALM 0 0 0 0 1027.4 1028.1 0.0
27/06:30am 1.9 0.2 1.9 100 0.0 CALM 0 2 0 1 1027.1 - 0.0
27/06:00am 2.1 -0.7 2.1 100 0.0 SSE 6 9 3 5 1026.9 1027.5 0.0
27/05:30am 3.1 1.6 3.1 100 0.0 CALM 0 0 0 0 1026.8 - 0.0
27/05:00am 2.8 1.3 2.8 100 0.0 CALM 0 0 0 0 1026.9 1027.5 0.0
27/04:30am 3.5 1.7 3.5 100 0.0 SSE 2 6 1 3 1026.8 - 0.0
27/04:00am 3.4 2.0 3.4 100 0.0 CALM 0 0 0 0 1026.8 1027.4 0.0
27/03:30am 3.1 0.8 3.0 99 0.0 SSE 4 13 2 7 1026.7 - 0.0
27/03:00am 3.7 1.9 3.7 100 0.0 SSE 2 7 1 4 1026.6 1027.2 0.0
27/02:30am 4.4 2.8 4.4 100 0.0 SE 2 6 1 3 1027.0 - 0.0
27/02:00am 4.7 3.1 4.6 99 0.0 SSE 2 7 1 4 1027.1 1027.7 0.0
27/01:30am 4.5 2.5 4.4 99 0.0 S 4 9 2 5 1027.3 - 0.0
27/01:00am 4.9 2.6 4.8 99 0.0 NE 6 7 3 4 1027.3 1028.0 0.0
27/12:30am 5.5 3.1 5.4 99 0.0 S 7 9 4 5 1027.2 - 0.0
27/12:00am 5.2 3.7 5.1 99 0.0 S 2 9 1 5 1027.0 1027.6 0.0
 
Date/Time
EST
Temp
°C
App
Temp
°C
Dew
Point
Rel
Hum
%
Delta-T
°C
Wind Press
QNH
hPa
Press
MSL
hPa
Rain
since 9 am
mm
Dir
 
Spd
km/h
Gust
km/h
Spd
kts
Gust
kts
26/11:30pm 6.2 4.9 6.1 99 0.0 NNE 2 6 1 3 1026.8 - 0.0
26/11:00pm 6.3 4.6 6.0 98 0.1 SSE 4 7 2 4 1026.8 1027.4 0.0
26/10:30pm 6.4 5.1 5.8 96 0.3 SE 2 9 1 5 1026.7 - 0.0
26/10:00pm 7.6 6.1 6.7 94 0.4 SE 4 9 2 5 1026.6 1027.2 0.0
26/09:30pm 7.9 6.4 6.7 92 0.6 SE 4 11 2 6 1026.6 - 0.0
26/09:00pm 8.0 6.0 6.3 89 0.8 ESE 6 7 3 4 1026.4 1027.0 0.0
26/08:30pm 9.3 7.9 7.3 87 1.0 NE 4 7 2 4 1026.2 - 0.0
26/08:00pm 9.7 8.1 7.8 88 0.9 N 6 9 3 5 1026.3 1026.9 0.0
26/07:30pm 10.0 8.1 7.6 85 1.2 SSE 7 9 4 5 1026.1 - 0.0
26/07:00pm 11.3 10.1 8.2 81 1.5 SSE 4 7 2 4 1026.0 1026.6 0.0
26/06:30pm 11.5 10.3 8.2 80 1.6 SSE 4 7 2 4 1025.7 - 0.0
26/06:00pm 12.6 10.8 7.3 70 2.6 ESE 6 9 3 5 1025.5 1026.1 0.0
26/05:30pm 13.8 11.5 7.6 66 3.1 SE 9 15 5 8 1025.1 - 0.0
26/05:00pm 15.6 12.7 6.6 55 4.5 SE 11 20 6 11 1024.9 1025.5 0.0
26/04:30pm 16.7 12.1 5.6 48 5.4 SSE 19 24 10 13 1024.3 - 0.0
26/04:00pm 17.5 13.4 6.1 47 5.7 S 17 22 9 12 1024.3 1024.9 0.0
26/03:30pm 17.7 14.8 6.6 48 5.6 SSE 11 20 6 11 1024.2 - 0.0
26/03:00pm 16.6 12.2 6.4 51 5.1 SSE 19 33 10 18 1024.3 1024.9 0.0
26/02:30pm 17.3 14.1 4.9 44 6.0 SE 11 19 6 10 1024.3 - 0.0
26/02:00pm 17.0 14.2 5.0 45 5.8 ESE 9 20 5 11 1024.4 1025.0 0.0
26/01:30pm 17.0 13.2 5.9 48 5.5 ESE 15 22 8 12 1024.7 - 0.0
26/01:00pm 16.4 11.7 6.0 50 5.1 SSE 20 32 11 17 1024.9 1025.5 0.0
26/12:30pm 16.0 12.7 4.7 47 5.4 SE 11 22 6 12 1025.1 - 0.0
26/12:00pm 16.1 13.7 5.4 49 5.2 S 7 13 4 7 1025.4 1026.0 0.0
26/11:30am 15.3 12.2 5.5 52 4.8 S 11 24 6 13 1025.8 - 0.0
26/11:00am 14.8 10.1 5.9 55 4.3 SE 20 26 11 14 1026.1 1026.7 0.0
26/10:30am 12.3 11.4 9.1 81 1.6 W 4 7 2 4 1026.2 - 0.0
26/10:00am 11.9 11.1 9.6 86 1.2 ESE 4 9 2 5 1026.1 1026.7 0.0
26/09:30am 10.9 9.6 9.3 90 0.8 WNW 6 9 3 5 1026.3 - 0.0
26/09:00am 10.1 9.5 9.0 93 0.6 SSE 2 7 1 4 1026.1 1026.7 0.2
26/08:30am 9.1 7.8 9.1 100 0.0 SSW 6 11 3 6 1026.0 - 0.2
26/08:00am 8.9 7.5 8.9 100 0.0 N 6 9 3 5 1026.0 1026.6 0.2
26/07:30am 7.6 5.9 7.6 100 0.0 N 6 7 3 4 1025.7 - 0.2
26/07:00am 7.2 5.8 7.2 100 0.0 W 4 7 2 4 1025.6 1026.2 0.2
26/06:30am 6.5 4.9 6.5 100 0.0 WSW 4 7 2 4 1025.3 - 0.2
26/06:00am 6.6 4.7 6.6 100 0.0 NW 6 7 3 4 1025.1 1025.7 0.2
26/05:30am 6.2 5.3 6.2 100 0.0 CALM 0 0 0 0 1024.7 - 0.2
26/05:00am 6.1 4.8 6.1 100 0.0 E 2 6 1 3 1024.3 1024.9 0.2
26/04:30am 6.8 5.3 6.8 100 0.0 SE 4 9 2 5 1024.1 - 0.2
26/04:00am 6.8 6.1 6.8 100 0.0 CALM 0 6 0 3 1024.4 1025.0 0.2
26/03:30am 6.9 5.8 6.9 100 0.0 SSE 2 11 1 6 1024.3 - 0.2
26/03:00am 7.1 6.4 7.1 100 0.0 CALM 0 0 0 0 1024.4 1025.0 0.2
26/02:30am 7.3 5.5 7.2 99 0.0 NE 6 9 3 5 1024.7 - 0.2
26/02:00am 7.1 5.1 7.1 100 0.0 S 7 9 4 5 1024.9 1025.5 0.2
26/01:30am 7.6 6.6 7.5 99 0.0 ENE 2 6 1 3 1025.0 - 0.2
26/01:00am 7.6 6.6 7.5 99 0.0 NW 2 7 1 4 1025.2 1025.8 0.2
26/12:30am 7.6 5.8 7.3 98 0.1 E 6 9 3 5 1025.0 - 0.2
26/12:00am 8.3 6.4 7.4 94 0.4 NNE 7 9 4 5 1025.2 1025.8 0.2
 
Date/Time
EST
Temp
°C
App
Temp
°C
Dew
Point
Rel
Hum
%
Delta-T
°C
Wind Press
QNH
hPa
Press
MSL
hPa
Rain
since 9 am
mm
Dir
 
Spd
km/h
Gust
km/h
Spd
kts
Gust
kts
25/11:30pm 8.5 6.7 7.0 90 0.7 N 6 7 3 4 1025.1 - 0.2
25/11:00pm 10.3 7.7 5.9 74 2.1 S 9 19 5 10 1025.1 1025.7 0.2
25/10:30pm 11.6 9.0 5.9 68 2.7 S 9 19 5 10 1025.1 - 0.2
25/10:00pm 10.9 8.8 6.6 75 2.1 SSE 7 17 4 9 1025.4 1026.0 0.2
25/09:30pm 9.4 8.1 9.3 99 0.1 NW 6 11 3 6 1025.5 - 0.2
25/09:00pm 9.5 9.0 9.5 100 0.0 E 2 7 1 4 1025.4 1026.0 0.2
25/08:30pm 9.2 8.3 9.2 100 0.0 N 4 7 2 4 1025.3 - 0.2
25/08:00pm 9.4 9.3 9.4 100 0.0 CALM 0 0 0 0 1025.2 1025.8 0.2
25/07:30pm 9.5 8.3 9.5 100 0.0 NE 6 7 3 4 1024.8 - 0.2
25/07:00pm 9.9 9.1 9.8 99 0.1 E 4 6 2 3 1024.7 1025.2 0.2
25/06:30pm 10.1 9.0 9.8 98 0.2 SSE 6 9 3 5 1024.2 - 0.2
25/06:00pm 10.7 10.4 8.5 86 1.1 CALM 0 0 0 0 1024.0 1024.6 0.2
25/05:30pm 11.9 10.2 7.6 75 2.1 SSW 6 9 3 5 1023.7 - 0.2

Other Formats:

Comma delimited format used in spreadsheet applications
http://www.bom.gov.au/fwo/IDN60801/IDN60801.94919.axf

JavaScript Object Notation format (JSON) in row-major order
http://www.bom.gov.au/fwo/IDN60801/IDN60801.94919.json